Virtual Norwegian is not affiliated with Norwegian Air Shuttle in any way.
If you are looking for the real "Norwegian", or you wish to book Norwegian flights, please visit Norwegian.com


We use cookies to ensure you get the best experience on our website.   ACCEPT

OJAQ - AQJ - Aqaba (Aqaba King Hussein Intl)

General Info Alternate Airport
ICAO: OJAQ Elevation: 175 ft ICAO: OJAI
IATA: AQJ Country: Jordan IATA: AMM
City: Aqaba Charts: Log in to view charts City: Amman
Name: Aqaba King Hussein Intl Hub: No Name Queen Alia Intl
General Info
ICAO: OJAQ
IATA: AQJ
City: Aqaba
Name: Aqaba King Hussein Intl
Elevation: 175 ft
Country: Jordan
Charts: Log in to view charts
Hub: No
 
Alternate Airport
ICAO: OJAI
IATA: AMM
City: Amman
Name: Queen Alia Intl

Weather
261500Z 35020KT CAVOK 37/05 Q1008 NOSIG
Weather
261500Z 35020KT CAVOK 37/05 Q1008 NOSIG

NOTAMs
NOTAMs currently unavailable.
NOTAMs
NOTAMs currently unavailable

Route map
Airport
Airport (hub)